Time,TemperatureF,DewpointF,PressureIn,WindDirection,WindDirectionDegrees,WindSpeedMPH,WindSpeedGustMPH,Humidity,HourlyPrecipIn,Conditions,Clouds,dailyrainin,SoftwareType,DateUTC
2013-10-16 00:13:00,36.0,29.0,-100.00,SW,226,6.0,7.0,76,0.00,,,0.00,,2013-10-16 04:13:00,
2013-10-16 00:43:00,35.0,29.0,-100.00,SSW,200,1.0,3.0,81,0.00,,,0.00,,2013-10-16 04:43:00,
2013-10-16 01:13:00,34.0,29.0,-100.00,ESE,120,5.0,6.0,83,0.00,,,0.00,,2013-10-16 05:13:00,
2013-10-16 01:43:00,33.0,30.0,-100.00,ESE,119,5.0,6.0,88,0.00,,,0.00,,2013-10-16 05:43:00,
2013-10-16 02:12:00,32.0,30.0,-100.00,SE,124,4.0,5.0,92,0.00,,,0.00,,2013-10-16 06:12:00,
2013-10-16 02:43:00,31.0,29.0,-100.00,SE,144,3.0,4.0,92,0.00,,,0.00,,2013-10-16 06:43:00,
2013-10-16 03:11:00,31.0,28.0,-100.00,SSE,165,4.0,5.0,87,0.00,,,0.00,,2013-10-16 07:11:00,
2013-10-16 03:42:00,30.0,27.0,-100.00,SSE,155,4.0,5.0,91,0.00,,,0.00,,2013-10-16 07:42:00,
2013-10-16 04:11:00,30.0,28.0,-100.00,SSE,151,7.0,8.0,91,0.00,,,0.00,,2013-10-16 08:11:00,
2013-10-16 04:41:00,31.0,28.0,-100.00,SSE,157,5.0,6.0,90,0.00,,,0.00,,2013-10-16 08:41:00,
2013-10-16 05:11:00,30.0,28.0,-100.00,SSE,168,4.0,5.0,94,0.00,,,0.00,,2013-10-16 09:11:00,
2013-10-16 05:43:00,29.0,27.0,-100.00,South,169,3.0,4.0,90,0.00,,,0.00,,2013-10-16 09:43:00,
2013-10-16 06:12:00,29.0,27.0,-100.00,SE,134,2.0,2.0,93,0.00,,,0.00,,2013-10-16 10:12:00,
2013-10-16 06:42:00,29.0,28.0,-100.00,SSE,157,1.0,2.0,96,0.00,,,0.00,,2013-10-16 10:42:00,
2013-10-16 07:12:00,27.0,26.0,-100.00,SE,145,0.0,0.0,94,0.00,,,0.00,,2013-10-16 11:12:00,
2013-10-16 07:42:00,27.0,26.0,-100.00,ESE,110,2.0,2.0,98,0.00,,,0.00,,2013-10-16 11:42:00,
2013-10-16 08:12:00,28.0,27.0,-100.00,ESE,113,3.0,4.0,97,0.00,,,0.00,,2013-10-16 12:12:00,
2013-10-16 08:42:00,27.0,26.0,-100.00,ESE,117,3.0,4.0,96,0.00,,,0.00,,2013-10-16 12:42:00,
2013-10-16 09:11:00,27.0,26.0,-100.00,ESE,104,0.0,1.0,96,0.00,,,0.00,,2013-10-16 13:11:00,
2013-10-16 09:42:00,27.0,27.0,-100.00,ESE,120,2.0,3.0,99,0.00,,,0.00,,2013-10-16 13:42:00,
2013-10-16 10:11:00,28.0,27.0,-100.00,SSE,151,1.0,2.0,96,0.00,,,0.00,,2013-10-16 14:11:00,
2013-10-16 10:42:00,24.0,23.0,-100.00,NNW,344,0.0,1.0,99,0.00,,,0.00,,2013-10-16 14:42:00,
2013-10-16 11:11:00,23.0,22.0,-100.00,NNW,330,1.0,1.0,95,0.00,,,0.00,,2013-10-16 15:11:00,
2013-10-16 11:43:00,29.0,26.0,-100.00,NNW,347,1.0,2.0,91,0.00,,,0.00,,2013-10-16 15:43:00,
2013-10-16 12:13:00,35.0,30.0,-100.00,NE,37,2.0,3.0,82,0.00,,,0.00,,2013-10-16 16:13:00,
2013-10-16 12:42:00,37.0,31.0,-100.00,NE,56,2.0,2.0,77,0.00,,,0.00,,2013-10-16 16:42:00,
2013-10-16 13:12:00,41.0,31.0,-100.00,ENE,78,1.0,3.0,67,0.00,,,0.00,,2013-10-16 17:12:00,
2013-10-16 13:43:00,41.0,30.0,-100.00,SSE,168,0.0,0.0,65,0.00,,,0.00,,2013-10-16 17:43:00,
2013-10-16 14:11:00,42.0,30.0,-100.00,SSW,195,3.0,5.0,62,0.00,,,0.00,,2013-10-16 18:11:00,
2013-10-16 14:42:00,46.0,32.0,-100.00,South,171,6.0,10.0,58,0.00,,,0.00,,2013-10-16 18:42:00,
2013-10-16 15:11:00,48.0,29.0,-100.00,South,174,7.0,12.0,48,0.00,,,0.00,,2013-10-16 19:11:00,
2013-10-16 15:42:00,50.0,32.0,-100.00,South,179,10.0,18.0,50,0.00,,,0.00,,2013-10-16 19:42:00,
2013-10-16 16:12:00,49.0,30.0,-100.00,SW,215,12.0,17.0,47,0.00,,,0.00,,2013-10-16 20:12:00,
2013-10-16 16:43:00,50.0,27.0,-100.00,SSW,203,11.0,15.0,41,0.00,,,0.00,,2013-10-16 20:43:00,
2013-10-16 17:11:00,51.0,27.0,-100.00,SSW,200,9.0,12.0,39,0.00,,,0.00,,2013-10-16 21:11:00,
2013-10-16 17:44:00,52.0,26.0,-100.00,SSW,206,9.0,14.0,36,0.00,,,0.00,,2013-10-16 21:44:00,
2013-10-16 18:14:00,52.0,25.0,-100.00,WSW,248,12.0,17.0,35,0.00,,,0.00,,2013-10-16 22:14:00,
2013-10-16 18:42:00,52.0,24.0,-100.00,SW,229,12.0,15.0,33,0.00,,,0.00,,2013-10-16 22:42:00,
2013-10-16 19:12:00,52.0,25.0,-100.00,SW,223,12.0,16.0,34,0.00,,,0.00,,2013-10-16 23:12:00,
2013-10-16 19:42:00,52.0,24.0,-100.00,SW,220,11.0,13.0,33,0.00,,,0.00,,2013-10-16 23:42:00,
2013-10-16 20:11:00,52.0,25.0,-100.00,SSW,203,8.0,10.0,34,0.00,,,0.00,,2013-10-17 00:11:00,
2013-10-16 20:42:00,51.0,28.0,-100.00,South,188,3.0,5.0,41,0.00,,,0.00,,2013-10-17 00:42:00,
2013-10-16 21:12:00,48.0,28.0,-100.00,South,184,5.0,6.0,46,0.00,,,0.00,,2013-10-17 01:12:00,
2013-10-16 21:42:00,45.0,30.0,-100.00,South,182,4.0,5.0,56,0.00,,,0.00,,2013-10-17 01:42:00,
2013-10-16 22:12:00,43.0,31.0,-100.00,South,182,4.0,6.0,61,0.00,,,0.00,,2013-10-17 02:12:00,
2013-10-16 23:12:00,40.0,33.0,-100.00,SE,145,7.0,9.0,77,0.00,,,0.00,,2013-10-17 03:12:00,
2013-10-16 23:44:00,40.0,34.0,-100.00,SW,217,1.0,1.0,79,0.00,,,0.00,,2013-10-17 03:44:00,